createdAt,value
2023-03-30T00:01:01.572Z,10.10
2023-03-30T00:03:29.982Z,10.00
2023-03-30T00:05:58.155Z,10.00
2023-03-30T00:08:28.403Z,10.00
2023-03-30T00:11:02.077Z,10.00
2023-03-30T00:13:31.215Z,9.90
2023-03-30T00:16:01.202Z,9.90
2023-03-30T00:18:30.664Z,9.90
2023-03-30T00:20:59.375Z,9.90
2023-03-30T00:23:27.570Z,9.90
2023-03-30T00:25:55.885Z,9.90
2023-03-30T00:28:25.086Z,10.00
2023-03-30T00:30:53.823Z,10.00
2023-03-30T00:33:33.597Z,9.90
2023-03-30T00:36:10.747Z,10.00
2023-03-30T00:38:38.940Z,10.00
2023-03-30T00:41:07.270Z,9.90
2023-03-30T00:43:35.575Z,9.90
2023-03-30T00:46:03.780Z,9.80
2023-03-30T00:48:36.394Z,9.80
2023-03-30T00:51:09.469Z,9.70
2023-03-30T00:53:42.077Z,9.80
2023-03-30T00:56:12.925Z,9.80
2023-03-30T00:58:43.516Z,9.80
2023-03-30T01:01:13.936Z,9.70
2023-03-30T01:03:46.665Z,9.80
2023-03-30T01:06:17.819Z,9.80
2023-03-30T01:08:46.764Z,9.80
2023-03-30T01:11:14.934Z,9.70
2023-03-30T01:13:45.415Z,9.70
2023-03-30T01:16:24.064Z,9.60
2023-03-30T01:19:05.385Z,9.60
2023-03-30T01:22:04.738Z,9.60
2023-03-30T01:25:05.697Z,9.60
2023-03-30T01:27:57.394Z,9.60
2023-03-30T01:30:41.418Z,9.60
2023-03-30T01:33:30.104Z,9.70
2023-03-30T01:36:24.204Z,9.70
2023-03-30T01:39:16.851Z,9.70
2023-03-30T01:41:55.953Z,9.60
2023-03-30T01:44:31.099Z,9.60
2023-03-30T01:47:06.137Z,9.60
2023-03-30T01:49:42.887Z,9.60
2023-03-30T01:52:19.030Z,9.50
2023-03-30T01:54:51.024Z,9.50
2023-03-30T01:57:22.328Z,9.50
2023-03-30T01:59:56.458Z,9.60
2023-03-30T02:02:29.774Z,9.60
2023-03-30T02:05:01.762Z,9.60
2023-03-30T02:07:33.086Z,9.60
2023-03-30T02:10:05.568Z,9.50
2023-03-30T02:12:36.186Z,9.40
2023-03-30T02:15:08.646Z,9.40
2023-03-30T02:17:38.178Z,9.60
2023-03-30T02:20:10.767Z,9.60
2023-03-30T02:22:39.227Z,9.60
2023-03-30T02:25:09.578Z,9.60
2023-03-30T02:27:38.629Z,9.60
2023-03-30T02:30:08.908Z,9.60
2023-03-30T02:32:42.292Z,9.70
2023-03-30T02:35:22.308Z,9.80
2023-03-30T02:38:13.129Z,9.80
2023-03-30T02:40:52.650Z,9.80
2023-03-30T02:43:27.649Z,9.80
2023-03-30T02:46:10.036Z,9.80
2023-03-30T02:48:43.373Z,9.80
2023-03-30T02:51:25.931Z,9.70
2023-03-30T02:54:37.801Z,9.60
2023-03-30T02:57:35.783Z,9.60
2023-03-30T03:00:42.989Z,9.50
2023-03-30T03:03:19.969Z,9.50
2023-03-30T03:05:49.459Z,9.80
2023-03-30T03:08:19.523Z,9.90
2023-03-30T03:10:50.062Z,9.90
2023-03-30T03:13:22.122Z,10.10
2023-03-30T03:15:52.939Z,10.20
2023-03-30T03:18:22.679Z,10.40
2023-03-30T03:20:51.168Z,10.70
2023-03-30T03:23:24.030Z,11.10
2023-03-30T03:25:55.975Z,10.90
2023-03-30T03:28:25.825Z,11.20
2023-03-30T03:30:59.742Z,11.00
2023-03-30T03:33:28.238Z,11.00
2023-03-30T03:36:23.622Z,11.10
2023-03-30T03:38:54.268Z,11.00
2023-03-30T03:41:22.370Z,10.90
2023-03-30T03:43:51.911Z,10.80
2023-03-30T03:46:20.507Z,10.70
2023-03-30T03:48:48.915Z,10.80
2023-03-30T03:51:16.934Z,10.60
2023-03-30T03:53:44.976Z,10.50
2023-03-30T03:56:14.807Z,10.50
2023-03-30T03:58:42.829Z,10.40
2023-03-30T04:01:14.554Z,10.30
2023-03-30T04:03:42.728Z,10.20
2023-03-30T04:06:11.192Z,10.20
2023-03-30T04:08:39.534Z,10.20
2023-03-30T04:11:22.245Z,10.10
2023-03-30T04:14:09.040Z,10.00
2023-03-30T04:16:51.344Z,10.20
2023-03-30T04:19:33.474Z,10.20
2023-03-30T04:22:19.877Z,10.30
2023-03-30T04:25:05.920Z,10.30
2023-03-30T04:27:54.564Z,10.30
2023-03-30T04:30:45.689Z,10.40
2023-03-30T04:33:51.880Z,10.30
2023-03-30T04:36:44.358Z,10.20
2023-03-30T04:39:31.601Z,10.10
2023-03-30T04:42:06.207Z,10.00
2023-03-30T04:44:43.224Z,9.80
2023-03-30T04:47:35.481Z,9.80
2023-03-30T04:50:23.644Z,9.80
2023-03-30T04:53:27.073Z,9.70
2023-03-30T04:56:33.445Z,9.70
2023-03-30T04:59:20.153Z,9.70
2023-03-30T05:02:06.621Z,9.80
2023-03-30T05:04:40.822Z,9.80
2023-03-30T05:07:21.639Z,9.70
2023-03-30T05:10:18.773Z,9.70
2023-03-30T05:12:49.615Z,9.70
2023-03-30T05:15:30.269Z,9.70
2023-03-30T05:18:15.709Z,9.70
2023-03-30T05:21:14.761Z,9.80
2023-03-30T05:24:19.412Z,9.90
2023-03-30T05:27:02.294Z,10.00
2023-03-30T05:29:59.913Z,10.10
2023-03-30T05:32:51.336Z,10.20
2023-03-30T05:35:37.888Z,10.20
2023-03-30T05:38:24.586Z,10.20
2023-03-30T05:41:12.407Z,10.20
2023-03-30T05:43:56.192Z,10.10
2023-03-30T05:46:35.918Z,10.10
2023-03-30T05:49:33.417Z,10.10
2023-03-30T05:52:09.632Z,10.10
2023-03-30T05:54:55.911Z,10.10
2023-03-30T05:57:54.370Z,10.00
2023-03-30T06:00:33.789Z,10.00
2023-03-30T06:03:10.284Z,10.10
2023-03-30T06:05:39.857Z,10.20
2023-03-30T06:08:08.986Z,10.30
2023-03-30T06:10:37.839Z,10.40
2023-03-30T06:13:09.467Z,10.50
2023-03-30T06:15:46.659Z,10.50
2023-03-30T06:18:20.107Z,10.40
2023-03-30T06:21:06.912Z,10.50
2023-03-30T06:23:46.254Z,10.60
2023-03-30T06:26:19.781Z,10.60
2023-03-30T06:28:50.465Z,10.60
2023-03-30T06:31:18.689Z,10.60
2023-03-30T06:33:52.449Z,10.60
2023-03-30T06:36:20.641Z,10.60
2023-03-30T06:38:49.711Z,10.50
2023-03-30T06:41:19.010Z,10.70
2023-03-30T06:43:51.092Z,10.80
2023-03-30T06:46:21.308Z,10.90
2023-03-30T06:48:52.082Z,10.80
2023-03-30T06:51:38.924Z,10.90
2023-03-30T06:54:08.181Z,11.00
2023-03-30T06:56:38.641Z,11.00
2023-03-30T06:59:13.511Z,11.00
2023-03-30T07:02:03.231Z,10.80
2023-03-30T07:04:47.716Z,10.70
2023-03-30T07:07:28.096Z,10.90
2023-03-30T07:09:56.230Z,10.90
2023-03-30T07:12:24.855Z,10.80
2023-03-30T07:14:55.143Z,10.70
2023-03-30T07:17:25.682Z,10.70
2023-03-30T07:19:55.127Z,10.70
2023-03-30T07:22:23.449Z,10.80
2023-03-30T07:24:51.554Z,10.80
2023-03-30T07:27:20.240Z,11.00
2023-03-30T07:29:50.128Z,11.00
2023-03-30T07:32:20.031Z,11.10
2023-03-30T07:34:48.347Z,11.10
2023-03-30T07:37:20.567Z,11.10
2023-03-30T07:42:18.583Z,11.30
2023-03-30T07:44:46.830Z,11.40
2023-03-30T07:47:19.764Z,11.60
2023-03-30T07:49:47.880Z,11.60
2023-03-30T07:52:16.305Z,11.80
2023-03-30T07:54:52.805Z,11.80
2023-03-30T07:57:26.837Z,11.80
2023-03-30T07:59:54.975Z,11.80
2023-03-30T08:02:50.856Z,11.80
2023-03-30T08:05:20.906Z,11.60
2023-03-30T08:08:04.925Z,11.60
2023-03-30T08:10:36.764Z,11.60
2023-03-30T08:13:04.999Z,11.60
2023-03-30T08:15:33.168Z,11.60
2023-03-30T08:18:06.703Z,11.60
2023-03-30T08:20:35.135Z,11.70
2023-03-30T08:23:03.142Z,11.90
2023-03-30T08:25:31.652Z,11.90
2023-03-30T08:27:59.759Z,12.00
2023-03-30T08:30:28.186Z,12.00
2023-03-30T08:32:57.006Z,12.10
2023-03-30T08:35:26.592Z,12.10
2023-03-30T08:37:55.453Z,12.30
2023-03-30T08:40:24.245Z,12.30
2023-03-30T08:43:11.881Z,12.50
2023-03-30T08:45:42.756Z,12.60
2023-03-30T08:48:17.922Z,12.80
2023-03-30T08:50:55.905Z,12.80
2023-03-30T08:53:24.435Z,12.80
2023-03-30T08:55:57.071Z,12.70
2023-03-30T08:58:34.509Z,12.50
2023-03-30T09:01:09.629Z,12.40
2023-03-30T09:03:43.572Z,12.40
2023-03-30T09:06:21.196Z,12.40
2023-03-30T09:08:50.386Z,12.40
2023-03-30T09:11:26.985Z,12.50
2023-03-30T09:13:56.505Z,12.60
2023-03-30T09:16:34.651Z,12.90
2023-03-30T09:19:04.747Z,12.90
2023-03-30T09:21:34.382Z,13.00
2023-03-30T09:24:11.881Z,12.90
2023-03-30T09:26:47.756Z,12.80
2023-03-30T09:29:20.014Z,12.70
2023-03-30T09:31:52.705Z,12.80
2023-03-30T09:34:28.213Z,13.00
2023-03-30T09:37:02.218Z,13.10
2023-03-30T09:39:33.475Z,13.20
2023-03-30T09:42:14.682Z,13.40
2023-03-30T09:44:48.694Z,13.50
2023-03-30T09:47:27.828Z,13.70
2023-03-30T09:50:00.267Z,14.10
2023-03-30T09:52:32.026Z,14.40
2023-03-30T09:55:17.906Z,14.50
2023-03-30T09:57:46.112Z,14.40
2023-03-30T10:00:26.692Z,14.70
2023-03-30T10:02:59.083Z,14.90
2023-03-30T10:05:28.436Z,14.90
2023-03-30T10:07:59.771Z,15.10
2023-03-30T10:10:36.056Z,15.00
2023-03-30T10:13:07.651Z,14.90
2023-03-30T10:15:39.385Z,15.00
2023-03-30T10:18:24.216Z,15.50
2023-03-30T10:20:54.243Z,16.00
2023-03-30T10:23:33.221Z,16.00
2023-03-30T10:26:03.811Z,16.20
2023-03-30T10:28:35.966Z,16.30
2023-03-30T10:31:08.809Z,16.30
2023-03-30T10:33:43.084Z,16.40
2023-03-30T10:36:12.407Z,16.10
2023-03-30T10:38:44.072Z,16.10
2023-03-30T10:41:16.682Z,16.00
2023-03-30T10:43:45.945Z,16.00
2023-03-30T10:46:20.386Z,16.00
2023-03-30T10:49:02.210Z,15.90
2023-03-30T10:51:43.990Z,15.60
2023-03-30T10:54:19.129Z,15.50
2023-03-30T10:56:51.433Z,15.40
2023-03-30T10:59:37.660Z,15.30
2023-03-30T11:02:23.115Z,15.10
2023-03-30T11:04:56.605Z,14.90
2023-03-30T11:07:31.018Z,14.70
2023-03-30T11:10:06.568Z,14.40
2023-03-30T11:12:39.122Z,14.30
2023-03-30T11:15:13.369Z,14.10
2023-03-30T11:17:51.223Z,14.10
2023-03-30T11:20:27.329Z,13.90
2023-03-30T11:23:08.448Z,13.80
2023-03-30T11:25:45.205Z,14.00
2023-03-30T11:28:19.924Z,13.80
2023-03-30T11:30:50.191Z,13.80
2023-03-30T11:33:26.961Z,13.80
2023-03-30T11:35:58.856Z,13.80
2023-03-30T11:38:34.376Z,13.60
2023-03-30T11:41:12.570Z,13.40
2023-03-30T11:43:41.158Z,13.30
2023-03-30T11:46:15.490Z,13.20
2023-03-30T11:49:16.490Z,13.20
2023-03-30T11:52:05.437Z,13.00
2023-03-30T11:55:03.548Z,12.90
2023-03-30T11:57:41.295Z,12.80
2023-03-30T12:00:29.038Z,12.90
2023-03-30T12:03:06.502Z,12.90
2023-03-30T12:05:37.523Z,12.60
2023-03-30T12:08:21.408Z,12.50
2023-03-30T12:10:54.462Z,12.10
2023-03-30T12:13:25.925Z,11.90
2023-03-30T12:15:58.668Z,11.70
2023-03-30T12:18:34.076Z,11.60
2023-03-30T12:21:28.138Z,11.50
2023-03-30T12:24:03.368Z,11.40
2023-03-30T12:26:34.272Z,11.30
2023-03-30T12:29:56.478Z,11.20
2023-03-30T12:32:19.737Z,11.00
2023-03-30T12:34:48.074Z,10.80
2023-03-30T12:37:19.484Z,10.70
2023-03-30T12:39:49.941Z,10.70
2023-03-30T12:42:28.082Z,10.60
2023-03-30T12:45:31.881Z,10.50
2023-03-30T12:48:20.885Z,10.40
2023-03-30T12:50:59.731Z,10.40
2023-03-30T12:53:57.001Z,10.40
2023-03-30T12:56:35.112Z,10.40
2023-03-30T12:59:31.455Z,10.40
2023-03-30T13:02:19.611Z,10.40
2023-03-30T13:04:49.002Z,10.40
2023-03-30T13:07:23.270Z,10.40
2023-03-30T13:09:59.234Z,10.50
2023-03-30T13:12:39.307Z,10.40
2023-03-30T13:15:33.300Z,10.40
2023-03-30T13:18:05.338Z,10.40
2023-03-30T13:20:35.624Z,10.40
2023-03-30T13:23:28.168Z,10.40
2023-03-30T13:26:05.944Z,10.40
2023-03-30T13:28:55.926Z,10.40
2023-03-30T13:31:45.172Z,10.40
2023-03-30T13:34:33.405Z,10.30
2023-03-30T13:37:06.385Z,10.30
2023-03-30T13:39:42.365Z,10.30
2023-03-30T13:42:31.575Z,10.30
2023-03-30T13:45:05.920Z,10.30
2023-03-30T13:47:47.393Z,10.20
2023-03-30T13:50:26.419Z,10.20
2023-03-30T13:52:56.813Z,10.20
2023-03-30T13:55:32.528Z,10.20
2023-03-30T13:58:04.349Z,10.20
2023-03-30T14:00:44.744Z,10.20
2023-03-30T14:03:38.258Z,10.20
2023-03-30T14:06:09.798Z,10.30
2023-03-30T14:08:39.828Z,10.20
2023-03-30T14:11:16.392Z,10.20
2023-03-30T14:13:46.171Z,10.20
2023-03-30T14:16:20.168Z,10.20
2023-03-30T14:18:48.742Z,10.20
2023-03-30T14:21:21.937Z,10.30
2023-03-30T14:23:52.737Z,10.20
2023-03-30T14:26:24.768Z,10.30
2023-03-30T14:28:56.557Z,10.30
2023-03-30T14:31:27.344Z,10.30
2023-03-30T14:33:55.839Z,10.30
2023-03-30T14:36:25.815Z,10.30
2023-03-30T14:38:55.356Z,10.40
2023-03-30T14:41:27.369Z,10.30
2023-03-30T14:43:58.221Z,10.40
2023-03-30T14:46:29.678Z,10.30
2023-03-30T14:48:59.013Z,10.40
2023-03-30T14:51:39.543Z,10.50
2023-03-30T14:54:08.411Z,10.50
2023-03-30T14:56:38.911Z,10.50
2023-03-30T14:59:08.053Z,10.60
2023-03-30T15:01:36.512Z,10.70
2023-03-30T15:04:11.247Z,10.80
2023-03-30T15:06:42.007Z,10.80
2023-03-30T15:09:16.783Z,10.90
2023-03-30T15:11:46.732Z,11.00
2023-03-30T15:14:20.767Z,11.00
2023-03-30T15:16:53.656Z,11.00
2023-03-30T15:19:30.892Z,11.20
2023-03-30T15:22:05.794Z,11.20
2023-03-30T15:24:37.986Z,11.30
2023-03-30T15:27:11.754Z,11.30
2023-03-30T15:29:41.714Z,11.40
2023-03-30T15:32:16.748Z,11.30
2023-03-30T15:35:02.214Z,11.30
2023-03-30T15:37:33.183Z,11.30
2023-03-30T15:40:01.364Z,11.30
2023-03-30T15:42:31.903Z,11.30
2023-03-30T15:45:05.028Z,11.30
2023-03-30T15:47:33.177Z,11.30
2023-03-30T15:50:01.805Z,11.20
2023-03-30T15:52:35.555Z,11.30
2023-03-30T15:55:08.828Z,11.40
2023-03-30T15:57:41.777Z,11.40
2023-03-30T16:00:17.659Z,11.50
2023-03-30T16:02:49.163Z,11.50
2023-03-30T16:05:20.149Z,11.60
2023-03-30T16:07:50.027Z,11.60
2023-03-30T16:10:20.715Z,11.60
2023-03-30T16:12:49.521Z,11.60
2023-03-30T16:15:19.634Z,11.60
2023-03-30T16:17:48.051Z,11.50
2023-03-30T16:20:18.126Z,12.00
2023-03-30T16:22:47.331Z,12.10
2023-03-30T16:25:17.641Z,12.10
2023-03-30T16:27:46.755Z,12.50
2023-03-30T16:30:19.836Z,12.60
2023-03-30T16:32:47.869Z,12.50
2023-03-30T16:35:16.470Z,12.70
2023-03-30T16:37:44.534Z,12.30
2023-03-30T16:40:22.598Z,12.40
2023-03-30T16:42:50.697Z,12.40
2023-03-30T16:45:18.805Z,12.60
2023-03-30T16:47:47.437Z,12.30
2023-03-30T16:50:20.867Z,12.10
2023-03-30T16:52:48.972Z,11.80
2023-03-30T16:55:19.157Z,11.50
2023-03-30T16:57:47.356Z,11.30
2023-03-30T17:00:21.708Z,11.30
2023-03-30T17:02:49.856Z,11.10
2023-03-30T17:05:18.415Z,11.20
2023-03-30T17:07:47.574Z,11.10
2023-03-30T17:10:24.231Z,11.10
2023-03-30T17:12:52.718Z,11.00
2023-03-30T17:15:21.258Z,10.90
2023-03-30T17:17:49.840Z,10.90
2023-03-30T17:20:22.016Z,11.00
2023-03-30T17:22:50.404Z,10.90
2023-03-30T17:25:23.386Z,10.90
2023-03-30T17:27:52.385Z,11.00
2023-03-30T17:30:24.479Z,10.90
2023-03-30T17:32:55.037Z,10.90
2023-03-30T17:35:24.378Z,11.00
2023-03-30T17:37:52.995Z,11.00
2023-03-30T17:40:26.049Z,11.00
2023-03-30T17:42:54.830Z,11.00
2023-03-30T17:45:25.066Z,11.10
2023-03-30T17:47:53.876Z,11.10
2023-03-30T17:50:29.151Z,11.10
2023-03-30T17:52:57.777Z,11.10
2023-03-30T17:55:28.875Z,11.20
2023-03-30T17:57:57.202Z,11.10
2023-03-30T18:00:27.853Z,11.10
2023-03-30T18:02:56.816Z,11.20
2023-03-30T18:05:26.920Z,11.10
2023-03-30T18:07:55.296Z,11.00
2023-03-30T18:10:27.552Z,11.20
2023-03-30T18:12:56.170Z,10.90
2023-03-30T18:15:27.842Z,10.70
2023-03-30T18:17:57.178Z,10.80
2023-03-30T18:20:28.937Z,10.70
2023-03-30T18:22:57.292Z,10.80
2023-03-30T18:25:32.362Z,10.70
2023-03-30T18:28:01.033Z,10.70
2023-03-30T18:30:31.088Z,10.60
2023-03-30T18:32:59.907Z,10.60
2023-03-30T18:35:29.324Z,10.60
2023-03-30T18:37:58.356Z,10.70
2023-03-30T18:40:32.694Z,10.40
2023-03-30T18:43:01.766Z,10.70
2023-03-30T18:45:31.902Z,10.60
2023-03-30T18:48:00.122Z,10.50
2023-03-30T18:50:32.909Z,10.60
2023-03-30T18:53:02.336Z,10.40
2023-03-30T18:55:33.617Z,10.60
2023-03-30T18:58:02.486Z,10.50
2023-03-30T19:00:32.168Z,10.40
2023-03-30T19:03:00.329Z,10.50
2023-03-30T19:05:30.638Z,10.30
2023-03-30T19:07:59.262Z,10.40
2023-03-30T19:10:30.752Z,10.30
2023-03-30T19:13:00.204Z,10.30
2023-03-30T19:15:30.029Z,10.50
2023-03-30T19:17:58.133Z,10.30
2023-03-30T19:20:28.536Z,10.20
2023-03-30T19:22:56.814Z,10.30
2023-03-30T19:25:26.925Z,10.20
2023-03-30T19:28:03.397Z,10.10
2023-03-30T19:30:36.872Z,9.90
2023-03-30T19:33:09.605Z,9.90
2023-03-30T19:35:37.774Z,9.90
2023-03-30T19:38:05.940Z,9.90
2023-03-30T19:40:33.930Z,9.90
2023-03-30T19:43:02.005Z,10.10
2023-03-30T19:45:30.389Z,10.00
2023-03-30T19:48:00.086Z,10.10
2023-03-30T19:50:30.124Z,10.10
2023-03-30T19:52:59.817Z,10.10
2023-03-30T19:55:28.411Z,10.00
2023-03-30T19:57:56.685Z,10.10
2023-03-30T20:00:25.240Z,10.10
2023-03-30T20:02:56.450Z,10.10
2023-03-30T20:05:26.182Z,10.10
2023-03-30T20:07:54.545Z,10.00
2023-03-30T20:10:25.572Z,10.00
2023-03-30T20:12:54.618Z,10.30
2023-03-30T20:15:25.530Z,10.20
2023-03-30T20:17:56.395Z,10.10
2023-03-30T20:20:26.524Z,10.10
2023-03-30T20:22:56.502Z,10.20
2023-03-30T20:25:25.336Z,10.10
2023-03-30T20:27:54.309Z,10.20
2023-03-30T20:30:22.448Z,10.20
2023-03-30T20:33:06.083Z,10.20
2023-03-30T20:35:36.395Z,10.20
2023-03-30T20:38:04.878Z,10.40
2023-03-30T20:40:33.151Z,10.20
2023-03-30T20:43:02.217Z,10.70
2023-03-30T20:45:30.839Z,10.90
2023-03-30T20:47:59.798Z,10.90
2023-03-30T20:50:28.036Z,10.90
2023-03-30T20:52:58.830Z,10.80
2023-03-30T20:55:27.256Z,10.50
2023-03-30T20:57:55.257Z,10.50
2023-03-30T21:00:23.742Z,10.30
2023-03-30T21:02:51.773Z,10.30
2023-03-30T21:05:19.736Z,10.20
2023-03-30T21:07:48.746Z,10.10
2023-03-30T21:10:18.484Z,10.10
2023-03-30T21:12:46.609Z,10.00
2023-03-30T21:15:15.105Z,9.80
2023-03-30T21:17:43.499Z,9.90
2023-03-30T21:20:14.012Z,10.00
2023-03-30T21:22:41.987Z,9.70
2023-03-30T21:25:11.280Z,9.50
2023-03-30T21:27:40.914Z,9.60
2023-03-30T21:30:12.142Z,9.60
2023-03-30T21:32:40.581Z,9.70
2023-03-30T21:35:09.163Z,9.70
2023-03-30T21:37:37.249Z,9.60
2023-03-30T21:40:07.224Z,9.50
2023-03-30T21:42:35.695Z,9.50
2023-03-30T21:45:05.484Z,9.50
2023-03-30T21:47:33.617Z,9.50
2023-03-30T21:50:01.724Z,9.40
2023-03-30T21:52:30.065Z,9.40
2023-03-30T21:54:58.141Z,9.40
2023-03-30T21:57:26.696Z,9.40
2023-03-30T21:59:54.942Z,9.30
2023-03-30T22:02:24.742Z,9.10
2023-03-30T22:04:52.840Z,8.90
2023-03-30T22:07:21.353Z,8.70
2023-03-30T22:09:49.510Z,8.50
2023-03-30T22:12:17.622Z,8.40
2023-03-30T22:14:45.728Z,8.40
2023-03-30T22:17:14.241Z,8.30
2023-03-30T22:19:43.920Z,8.30
2023-03-30T22:22:12.023Z,8.20
2023-03-30T22:24:40.478Z,8.20
2023-03-30T22:27:11.079Z,8.10
2023-03-30T22:29:39.359Z,8.00
2023-03-30T22:32:07.940Z,8.00
2023-03-30T22:34:36.885Z,7.90
2023-03-30T22:37:06.313Z,7.80
2023-03-30T22:39:34.344Z,7.70
2023-03-30T22:42:02.346Z,7.70
2023-03-30T22:44:30.464Z,7.70
2023-03-30T22:46:58.564Z,7.70
2023-03-30T22:49:26.667Z,7.60
2023-03-30T22:51:54.658Z,7.60
2023-03-30T22:54:24.710Z,7.60
2023-03-30T22:56:52.920Z,7.60
2023-03-30T22:59:20.978Z,7.60
2023-03-30T23:01:49.126Z,7.60
2023-03-30T23:04:18.734Z,7.60
2023-03-30T23:06:46.878Z,7.60
2023-03-30T23:09:16.202Z,7.60
2023-03-30T23:11:45.973Z,7.60
2023-03-30T23:14:14.576Z,7.70
2023-03-30T23:16:42.669Z,7.70
2023-03-30T23:19:12.122Z,7.60
2023-03-30T23:21:41.020Z,7.70
2023-03-30T23:24:12.230Z,7.60
2023-03-30T23:26:40.439Z,7.70
2023-03-30T23:29:10.040Z,7.60
2023-03-30T23:31:38.249Z,7.60
2023-03-30T23:34:07.795Z,7.50
2023-03-30T23:36:35.923Z,7.60
2023-03-30T23:39:05.441Z,7.50
2023-03-30T23:41:33.521Z,7.50
2023-03-30T23:44:01.577Z,7.40
2023-03-30T23:46:31.020Z,7.50
2023-03-30T23:48:59.524Z,7.40
2023-03-30T23:51:28.030Z,7.30
2023-03-30T23:54:00.012Z,7.30
2023-03-30T23:56:30.041Z,7.30
2023-03-30T23:58:59.206Z,7.20
